Time;durP1;ratioP1;P1;durP2;ratioP2;P2;SDS_P1;SDS_P2;PMS_P1;PMS_P2;Temp;Humidity;BMP_temperature;BMP_pressure;BME280_temperature;BME280_humidity;BME280_pressure;Samples;Min_cycle;Max_cycle;Signal;HPM_P1;HPM_P2
2023/10/17 00:00:57;;;;;;;16.73;9.53;;;7.80;73.70;;;;;;5012381;28;20910;-72
2023/10/17 00:03:24;;;;;;;14.97;9.17;;;7.70;75.10;;;;;;5012456;28;20480;-72
2023/10/17 00:05:51;;;;;;;17.02;8.90;;;7.60;75.30;;;;;;5012253;28;20419;-73
2023/10/17 00:08:17;;;;;;;14.10;8.40;;;7.80;73.90;;;;;;5011907;28;20871;-72
2023/10/17 00:10:46;;;;;;;14.35;7.20;;;8.20;68.80;;;;;;5011900;28;20388;-72
2023/10/17 00:13:31;;;;;;;12.98;6.85;;;8.30;65.40;;;;;;5012328;28;20534;-73
2023/10/17 00:15:58;;;;;;;15.53;7.00;;;8.60;61.90;;;;;;5012001;28;20408;-74
2023/10/17 00:18:26;;;;;;;10.50;6.50;;;8.50;61.30;;;;;;5011636;28;20871;-73
2023/10/17 00:20:53;;;;;;;12.38;6.53;;;8.40;61.80;;;;;;5011804;28;20384;-73
2023/10/17 00:23:22;;;;;;;11.82;6.63;;;8.20;64.00;;;;;;5013585;28;20376;-73
2023/10/17 00:25:49;;;;;;;14.52;6.70;;;8.00;66.90;;;;;;5012233;28;20476;-73
2023/10/17 00:28:21;;;;;;;13.05;5.78;;;7.90;68.30;;;;;;5011380;28;20389;-73
2023/10/17 00:30:51;;;;;;;15.48;6.60;;;7.80;69.10;;;;;;5011771;28;20392;-72
2023/10/17 00:33:20;;;;;;;11.75;6.18;;;8.00;68.90;;;;;;5011507;28;20393;-72
2023/10/17 00:35:47;;;;;;;13.80;6.30;;;8.30;64.10;;;;;;5012279;28;20462;-74
2023/10/17 00:38:15;;;;;;;13.88;6.30;;;8.20;63.20;;;;;;5013647;28;20431;-73
2023/10/17 00:40:51;;;;;;;12.88;6.22;;;8.20;64.20;;;;;;5013441;28;20403;-73
2023/10/17 00:43:17;;;;;;;12.50;6.40;;;8.30;62.30;;;;;;5011335;28;20469;-73
2023/10/17 00:45:46;;;;;;;11.80;6.03;;;8.10;65.30;;;;;;5011601;28;20475;-72
2023/10/17 00:48:18;;;;;;;14.85;7.38;;;7.90;68.30;;;;;;5011383;28;20778;-72
2023/10/17 00:50:50;;;;;;;14.85;6.88;;;7.70;70.90;;;;;;5011434;28;20476;-72
2023/10/17 00:53:16;;;;;;;13.40;6.53;;;7.70;71.60;;;;;;5011132;28;20385;-72
2023/10/17 00:55:51;;;;;;;14.98;6.30;;;7.60;71.90;;;;;;5011165;28;20430;-72
2023/10/17 00:58:21;;;;;;;14.85;6.70;;;7.60;72.00;;;;;;5010198;28;20434;-73
2023/10/17 01:01:32;;;;;;;10.43;6.00;;;7.60;73.00;;;;;;5011615;28;20393;-72
2023/10/17 01:03:33;;;;;;;9.68;6.18;;;7.60;73.30;;;;;;5003122;28;20389;-73
2023/10/17 01:06:13;;;;;;;11.60;6.40;;;7.50;74.40;;;;;;5011708;28;20806;-71
2023/10/17 01:08:39;;;;;;;8.02;5.60;;;7.50;74.20;;;;;;5010025;28;20740;-72
2023/10/17 01:11:20;;;;;;;8.80;5.60;;;7.50;74.40;;;;;;5011422;28;20392;-73
2023/10/17 01:13:52;;;;;;;9.13;5.50;;;7.50;74.90;;;;;;5011110;28;20464;-72
2023/10/17 01:16:19;;;;;;;13.27;6.35;;;7.60;75.10;;;;;;5011272;28;20443;-72
2023/10/17 01:18:45;;;;;;;10.10;5.78;;;7.90;69.60;;;;;;5011225;28;20420;-73
2023/10/17 01:21:17;;;;;;;7.20;5.20;;;8.10;66.30;;;;;;5011295;28;20389;-73
2023/10/17 01:23:44;;;;;;;8.73;5.47;;;7.90;67.10;;;;;;5011350;28;20387;-74
2023/10/17 01:26:12;;;;;;;17.63;6.00;;;7.80;68.70;;;;;;5011267;28;20413;-71
2023/10/17 01:28:38;;;;;;;14.02;6.63;;;7.80;69.40;;;;;;5010721;28;20432;-71
2023/10/17 01:31:03;;;;;;;9.77;5.55;;;7.80;69.80;;;;;;5010891;28;20432;-71
2023/10/17 01:33:29;;;;;;;11.80;6.65;;;7.80;68.90;;;;;;5010681;28;20396;-73
2023/10/17 01:36:01;;;;;;;7.88;6.00;;;7.70;70.20;;;;;;5011037;28;20409;-72
2023/10/17 01:38:28;;;;;;;15.15;6.70;;;7.70;70.80;;;;;;5011353;28;20376;-72
2023/10/17 01:40:58;;;;;;;11.93;6.30;;;7.70;70.10;;;;;;5011145;28;20473;-71
2023/10/17 01:43:24;;;;;;;13.45;6.50;;;7.70;70.70;;;;;;5010883;28;20388;-73
2023/10/17 01:45:50;;;;;;;9.00;6.20;;;7.80;70.00;;;;;;5011042;28;20423;-73
2023/10/17 01:48:16;;;;;;;16.20;6.88;;;7.80;70.30;;;;;;5010639;28;20401;-73
2023/10/17 01:50:44;;;;;;;14.05;6.00;;;7.80;70.10;;;;;;5010680;28;20392;-72
2023/10/17 01:53:13;;;;;;;12.82;7.00;;;7.80;69.60;;;;;;5010737;28;20427;-72
2023/10/17 01:55:45;;;;;;;12.80;6.30;;;7.80;70.10;;;;;;5011344;28;20416;-73
2023/10/17 01:58:15;;;;;;;12.00;5.90;;;7.90;68.70;;;;;;5012634;28;20380;-73
2023/10/17 02:00:42;;;;;;;10.45;6.57;;;7.90;67.20;;;;;;5011350;28;20384;-72
2023/10/17 02:03:08;;;;;;;13.98;6.32;;;7.90;66.70;;;;;;5011011;28;20408;-72
2023/10/17 02:05:34;;;;;;;10.93;6.40;;;7.90;65.90;;;;;;5009393;28;20400;-72
2023/10/17 02:08:00;;;;;;;14.30;6.80;;;8.00;64.50;;;;;;5011042;28;20388;-73
2023/10/17 02:10:28;;;;;;;11.97;6.40;;;8.00;65.40;;;;;;5010396;28;20925;-72
2023/10/17 02:12:54;;;;;;;13.48;6.72;;;7.90;65.80;;;;;;5010515;28;20454;-72
2023/10/17 02:15:19;;;;;;;11.75;6.85;;;8.00;65.70;;;;;;5012913;28;20408;-72
2023/10/17 02:17:48;;;;;;;13.98;6.60;;;8.10;64.50;;;;;;5014101;28;20400;-72
2023/10/17 02:20:30;;;;;;;11.38;6.85;;;8.10;64.40;;;;;;5014402;28;20392;-73
2023/10/17 02:23:01;;;;;;;10.32;5.57;;;8.20;63.60;;;;;;5013924;28;20385;-71
2023/10/17 02:25:34;;;;;;;11.70;6.40;;;8.50;58.60;;;;;;5013948;28;20389;-73
2023/10/17 02:28:01;;;;;;;9.70;6.40;;;8.50;58.20;;;;;;5013829;28;20904;-73
2023/10/17 02:30:27;;;;;;;12.35;6.53;;;8.50;58.40;;;;;;5014825;28;20392;-73
2023/10/17 02:32:53;;;;;;;11.57;6.60;;;8.50;58.00;;;;;;5014372;28;20880;-72
2023/10/17 02:35:28;;;;;;;12.07;6.47;;;8.40;58.90;;;;;;5013857;28;20635;-72
2023/10/17 02:37:56;;;;;;;12.43;7.00;;;8.40;58.80;;;;;;5014436;28;20388;-72
2023/10/17 02:40:23;;;;;;;12.20;6.50;;;8.40;59.20;;;;;;5015326;28;20441;-73
2023/10/17 02:42:49;;;;;;;14.40;7.00;;;8.50;58.10;;;;;;5015853;28;20413;-72
2023/10/17 02:45:34;;;;;;;11.70;6.57;;;8.50;58.80;;;;;;5015599;28;20728;-72
2023/10/17 02:48:23;;;;;;;10.70;6.30;;;8.50;57.90;;;;;;5014012;28;20835;-72
2023/10/17 02:51:01;;;;;;;11.23;6.10;;;8.50;57.20;;;;;;5014872;28;20751;-73
2023/10/17 02:53:31;;;;;;;12.13;6.80;;;8.50;57.80;;;;;;5015728;28;20864;-73
2023/10/17 02:55:57;;;;;;;12.52;6.00;;;8.40;58.60;;;;;;5014789;28;20771;-72
2023/10/17 02:58:23;;;;;;;17.38;6.95;;;8.50;57.60;;;;;;5013448;28;20724;-73
2023/10/17 03:00:50;;;;;;;18.23;7.53;;;8.50;57.70;;;;;;5013337;28;20415;-72
2023/10/17 03:03:18;;;;;;;11.80;5.90;;;8.50;58.00;;;;;;5013355;28;20645;-73
2023/10/17 03:05:50;;;;;;;10.30;6.50;;;8.40;58.20;;;;;;5013442;28;20488;-73
2023/10/17 03:08:17;;;;;;;14.70;6.70;;;8.60;57.40;;;;;;5013471;28;20388;-72
2023/10/17 03:10:43;;;;;;;12.43;6.32;;;8.60;57.10;;;;;;5013395;28;20531;-71
2023/10/17 03:13:59;;;;;;;16.25;6.65;;;8.60;56.90;;;;;;5012760;28;20404;-71
2023/10/17 03:16:15;;;;;;;11.23;5.90;;;8.60;56.30;;;;;;5005769;28;20412;-72
2023/10/17 03:18:41;;;;;;;12.88;6.25;;;8.50;57.20;;;;;;5037422;22;20431;-74
2023/10/17 03:21:08;;;;;;;12.80;6.20;;;8.60;57.40;;;;;;5032920;28;20861;-74
2023/10/17 03:23:34;;;;;;;11.15;6.07;;;8.70;56.00;;;;;;5032661;28;20390;-74
2023/10/17 03:26:03;;;;;;;12.30;6.47;;;8.60;56.60;;;;;;5030539;28;20422;-74
2023/10/17 03:28:33;;;;;;;12.32;6.18;;;8.50;57.00;;;;;;5032487;28;20470;-73
2023/10/17 03:30:59;;;;;;;11.55;6.80;;;8.40;58.20;;;;;;5032685;28;20395;-74
2023/10/17 03:33:28;;;;;;;13.02;6.80;;;8.30;59.40;;;;;;5032412;28;20402;-74
2023/10/17 03:38:33;;;;;;;13.30;6.60;;;8.20;60.20;;;;;;5032475;28;20403;-73
2023/10/17 03:41:15;;;;;;;11.40;6.63;;;8.10;61.50;;;;;;5032420;28;20414;-74
2023/10/17 03:43:49;;;;;;;21.52;7.32;;;8.10;63.20;;;;;;5032223;28;20387;-73
2023/10/17 03:46:15;;;;;;;20.83;7.68;;;8.10;62.80;;;;;;5032530;28;20390;-74
2023/10/17 03:48:50;;;;;;;12.98;6.80;;;8.10;62.40;;;;;;5032273;28;20459;-73
2023/10/17 03:51:23;;;;;;;18.85;7.30;;;8.10;61.70;;;;;;5031309;28;20394;-74
2023/10/17 03:53:49;;;;;;;13.63;6.57;;;8.20;61.80;;;;;;5033376;28;20394;-74
2023/10/17 03:56:23;;;;;;;11.90;7.10;;;8.10;62.20;;;;;;5034219;28;20399;-74
2023/10/17 03:59:18;;;;;;;11.02;6.30;;;8.40;59.10;;;;;;5033604;28;20383;-73
2023/10/17 04:01:49;;;;;;;10.20;5.80;;;8.30;60.00;;;;;;5034382;28;20470;-74
2023/10/17 04:04:31;;;;;;;11.05;6.10;;;8.20;59.90;;;;;;5035081;28;20929;-74
2023/10/17 04:06:57;;;;;;;11.65;5.63;;;8.50;58.20;;;;;;5032229;28;20387;-74
2023/10/17 04:12:08;;;;;;;9.70;5.50;;;8.40;57.40;;;;;;5032410;28;20392;-73
2023/10/17 04:14:34;;;;;;;8.52;5.80;;;8.30;58.20;;;;;;5031676;28;20394;-73
2023/10/17 04:17:02;;;;;;;9.70;5.50;;;8.30;58.60;;;;;;5031742;28;20886;-73
2023/10/17 04:19:32;;;;;;;11.02;5.80;;;8.20;58.60;;;;;;5031594;28;20478;-74
2023/10/17 04:24:36;;;;;;;9.48;5.00;;;8.30;57.60;;;;;;5031419;28;20383;-73
2023/10/17 04:27:24;;;;;;;11.88;6.35;;;8.30;57.70;;;;;;5031382;28;20379;-74
2023/10/17 04:29:50;;;;;;;9.50;5.63;;;8.40;56.60;;;;;;5031346;28;20417;-72
2023/10/17 04:32:16;;;;;;;9.43;4.60;;;8.40;56.50;;;;;;5031415;28;20387;-73
2023/10/17 04:34:48;;;;;;;9.90;5.63;;;8.40;56.50;;;;;;5031179;28;20406;-73
2023/10/17 04:37:24;;;;;;;9.95;5.45;;;8.40;57.20;;;;;;5030218;28;20924;-73
2023/10/17 04:39:50;;;;;;;9.63;6.07;;;8.40;56.80;;;;;;5031392;28;20376;-73
2023/10/17 04:45:06;;;;;;;10.82;6.25;;;8.40;56.40;;;;;;4999471;28;20477;-73
2023/10/17 04:47:32;;;;;;;10.87;5.60;;;8.40;57.10;;;;;;5030823;28;20498;-73
2023/10/17 04:49:58;;;;;;;15.77;6.25;;;8.30;57.60;;;;;;5031130;28;20382;-73
2023/10/17 04:52:40;;;;;;;15.90;6.00;;;8.30;57.90;;;;;;5030859;28;20387;-73
2023/10/17 04:55:21;;;;;;;15.32;5.80;;;8.30;58.50;;;;;;5030712;28;20407;-74
2023/10/17 04:57:54;;;;;;;12.38;6.95;;;8.30;57.90;;;;;;5029636;28;20389;-74
2023/10/17 05:03:13;;;;;;;14.20;6.35;;;8.40;58.00;;;;;;5030883;28;20908;-73
2023/10/17 05:08:33;;;;;;;12.52;6.80;;;8.60;55.30;;;;;;5030684;28;20390;-72
2023/10/17 06:16:52;;;;;;;11.77;5.30;;;8.80;52.90;;;;;;5034047;28;20461;-75
2023/10/17 06:19:21;;;;;;;13.55;5.00;;;8.80;52.20;;;;;;5034205;28;20394;-74
2023/10/17 06:24:45;;;;;;;13.57;4.90;;;8.70;51.30;;;;;;5033795;28;20896;-74
2023/10/17 06:34:47;;;;;;;10.93;5.13;;;8.70;52.60;;;;;;5033652;28;20394;-73
2023/10/17 06:37:19;;;;;;;9.10;4.60;;;8.70;52.50;;;;;;5033597;28;20403;-74
2023/10/17 06:39:49;;;;;;;8.80;4.20;;;8.70;52.60;;;;;;5033922;28;20478;-73
2023/10/17 06:42:15;;;;;;;14.02;4.60;;;8.80;51.00;;;;;;5043556;28;20375;-73
2023/10/17 06:44:54;;;;;;;10.45;4.38;;;9.00;50.10;;;;;;5052773;28;20459;-75
2023/10/17 06:47:30;;;;;;;8.53;4.50;;;9.10;48.80;;;;;;5053217;28;20394;-73
2023/10/17 06:53:15;;;;;;;14.07;5.10;;;9.10;48.60;;;;;;5049803;28;20445;-74
2023/10/17 06:55:38;;;;;;;11.83;6.13;;;9.10;48.10;;;;;;5038708;28;20468;-73
2023/10/17 06:58:09;;;;;;;12.63;6.40;;;9.10;48.20;;;;;;5047685;28;20398;-73
2023/10/17 07:00:51;;;;;;;10.52;5.95;;;9.20;47.70;;;;;;5049373;28;20384;-75
2023/10/17 07:03:36;;;;;;;15.70;6.18;;;9.30;47.60;;;;;;5050023;28;20391;-74
2023/10/17 07:06:11;;;;;;;53.33;18.95;;;9.40;45.90;;;;;;5048769;28;20419;-75
2023/10/17 07:08:37;;;;;;;32.50;12.07;;;9.50;47.50;;;;;;5047788;28;20880;-74
2023/10/17 07:11:05;;;;;;;22.15;8.93;;;9.60;47.20;;;;;;5046262;28;20391;-75
2023/10/17 07:14:27;;;;;;;17.20;7.80;;;9.70;45.30;;;;;;5045935;28;20533;-73
2023/10/17 07:16:48;;;;;;;20.63;8.23;;;9.80;45.10;;;;;;5042109;28;20475;-75
2023/10/17 07:24:35;;;;;;;19.23;8.52;;;9.80;42.90;;;;;;5044776;28;20387;-74
2023/10/17 07:27:03;;;;;;;19.77;8.10;;;9.90;43.30;;;;;;5043361;28;20379;-74
2023/10/17 07:29:36;;;;;;;20.63;8.10;;;9.90;43.60;;;;;;5033890;28;20394;-75
2023/10/17 07:32:09;;;;;;;14.32;6.78;;;10.20;40.90;;;;;;5032988;28;20793;-74
2023/10/17 07:34:35;;;;;;;22.10;8.45;;;10.30;40.10;;;;;;5032981;28;20475;-73
2023/10/17 07:37:13;;;;;;;16.80;6.20;;;10.40;40.20;;;;;;5032403;28;20433;-74
2023/10/17 07:39:39;;;;;;;12.80;5.63;;;10.50;39.10;;;;;;5027061;28;20399;-74
2023/10/17 07:42:14;;;;;;;14.87;6.80;;;10.60;38.20;;;;;;5032034;28;20414;-74
2023/10/17 07:44:43;;;;;;;14.32;6.10;;;10.70;39.70;;;;;;5032527;28;20395;-73
2023/10/17 07:47:19;;;;;;;11.93;5.65;;;10.60;38.70;;;;;;5030417;28;20850;-74
2023/10/17 07:49:47;;;;;;;14.70;5.93;;;10.50;37.80;;;;;;5034112;28;20403;-71
2023/10/17 07:52:16;;;;;;;14.38;6.05;;;10.60;38.70;;;;;;5035268;28;20398;-73
2023/10/17 07:54:46;;;;;;;11.55;6.00;;;10.70;38.30;;;;;;5034073;28;20395;-74
2023/10/17 07:57:22;;;;;;;13.40;5.68;;;10.80;38.30;;;;;;5034079;28;20430;-73
2023/10/17 07:59:51;;;;;;;12.48;5.75;;;10.90;37.70;;;;;;5037272;28;20436;-73
2023/10/17 08:02:30;;;;;;;15.38;6.15;;;11.10;37.20;;;;;;5038074;28;20420;-73
2023/10/17 08:05:00;;;;;;;11.23;5.63;;;11.00;37.00;;;;;;5033817;28;20375;-73
2023/10/17 08:07:29;;;;;;;7.75;4.32;;;11.10;37.20;;;;;;5033048;28;20395;-73
2023/10/17 08:09:57;;;;;;;16.73;5.00;;;11.20;34.70;;;;;;5031570;28;20466;-73
2023/10/17 08:12:24;;;;;;;10.10;4.82;;;11.10;35.50;;;;;;5031135;28;20757;-74
2023/10/17 08:15:05;;;;;;;9.60;4.40;;;11.20;35.00;;;;;;5033595;28;20440;-74
2023/10/17 08:17:34;;;;;;;10.80;4.38;;;11.30;34.10;;;;;;5029768;28;20410;-73
2023/10/17 08:20:00;;;;;;;12.07;4.70;;;11.10;35.20;;;;;;5031438;28;20437;-73
2023/10/17 08:22:26;;;;;;;6.03;3.40;;;11.30;34.10;;;;;;5029877;28;20387;-73
2023/10/17 08:24:53;;;;;;;9.40;4.40;;;11.30;33.70;;;;;;5031293;28;20394;-74
2023/10/17 08:29:49;;;;;;;44.80;26.67;;;11.30;34.40;;;;;;5030974;28;20410;-74
2023/10/17 08:34:59;;;;;;;19.00;11.40;;;11.30;34.30;;;;;;5030745;28;20414;-73
2023/10/17 08:37:30;;;;;;;18.63;10.55;;;11.40;34.90;;;;;;5011133;28;20420;-73
2023/10/17 08:39:58;;;;;;;7.97;5.03;;;11.40;33.60;;;;;;5025494;28;20422;-75
2023/10/17 08:42:30;;;;;;;10.25;4.30;;;11.30;34.20;;;;;;5031036;28;20390;-74
2023/10/17 08:44:57;;;;;;;5.88;2.97;;;11.10;34.50;;;;;;5030356;28;20490;-74
2023/10/17 08:47:30;;;;;;;7.15;3.80;;;11.10;33.80;;;;;;5020758;28;20399;-74
2023/10/17 08:50:00;;;;;;;15.25;5.35;;;10.80;35.30;;;;;;5027616;28;20406;-72
2023/10/17 08:52:35;;;;;;;10.73;5.07;;;10.70;36.50;;;;;;5027584;28;20387;-73
2023/10/17 08:55:02;;;;;;;8.93;4.87;;;10.70;36.40;;;;;;5024659;28;20452;-73
2023/10/17 08:57:29;;;;;;;9.65;4.93;;;10.50;36.50;;;;;;5010397;28;20403;-73
2023/10/17 09:02:43;;;;;;;9.55;4.70;;;10.80;36.90;;;;;;5010963;28;20395;-73
2023/10/17 09:05:27;;;;;;;10.85;5.35;;;10.90;36.10;;;;;;5010797;28;20439;-73
2023/10/17 09:07:56;;;;;;;8.65;3.78;;;11.00;35.50;;;;;;5030102;28;20948;-73
2023/10/17 09:10:41;;;;;;;13.73;6.60;;;11.20;34.40;;;;;;5030466;28;20383;-73
2023/10/17 09:15:59;;;;;;;4.55;2.95;;;11.40;33.90;;;;;;5023613;28;20473;-73
2023/10/17 09:18:31;;;;;;;10.63;6.10;;;11.60;32.60;;;;;;5041191;22;21004;-73
2023/10/17 09:21:03;;;;;;;9.15;3.80;;;11.60;33.30;;;;;;5013670;28;20385;-72
2023/10/17 09:23:30;;;;;;;8.43;4.80;;;11.80;32.50;;;;;;5004949;28;20402;-72
2023/10/17 09:26:01;;;;;;;9.40;5.00;;;11.80;31.90;;;;;;4995344;28;20387;-74
2023/10/17 09:28:28;;;;;;;12.13;6.25;;;12.00;30.90;;;;;;5009746;28;20471;-75
2023/10/17 09:31:08;;;;;;;12.65;5.70;;;12.10;31.60;;;;;;5009348;28;20922;-73
2023/10/17 09:33:44;;;;;;;5.65;3.10;;;12.10;29.30;;;;;;4998212;28;20409;-74
2023/10/17 09:36:11;;;;;;;11.57;6.20;;;12.10;29.20;;;;;;4980925;28;20423;-73
2023/10/17 09:38:45;;;;;;;15.82;5.80;;;12.20;31.20;;;;;;5013855;28;20389;-74
2023/10/17 09:41:17;;;;;;;10.05;5.90;;;12.30;30.10;;;;;;4978148;28;20580;-72
2023/10/17 09:43:53;;;;;;;5.20;2.70;;;12.50;29.90;;;;;;4994536;28;20386;-73
2023/10/17 09:46:25;;;;;;;6.93;3.28;;;12.60;27.80;;;;;;4994564;28;20386;-73
2023/10/17 09:48:52;;;;;;;13.55;5.93;;;12.50;27.40;;;;;;5004019;28;20397;-73
2023/10/17 09:51:22;;;;;;;25.98;9.65;;;12.50;29.30;;;;;;5015211;28;20381;-72
2023/10/17 09:53:55;;;;;;;16.77;9.38;;;12.60;27.90;;;;;;5015311;28;20450;-73
2023/10/17 09:56:31;;;;;;;12.98;6.32;;;12.70;28.00;;;;;;5016247;28;20396;-72
2023/10/17 09:59:02;;;;;;;10.45;5.68;;;12.70;28.20;;;;;;5016584;28;20463;-73
2023/10/17 10:01:31;;;;;;;13.75;4.97;;;12.80;28.10;;;;;;5015611;28;20385;-72
2023/10/17 10:03:58;;;;;;;16.45;7.00;;;12.80;27.70;;;;;;4996700;28;20491;-73
2023/10/17 10:06:33;;;;;;;11.77;5.72;;;12.90;27.80;;;;;;5013551;28;20385;-74
2023/10/17 10:09:05;;;;;;;11.27;4.75;;;12.90;27.00;;;;;;5014737;28;20899;-72
2023/10/17 10:11:49;;;;;;;9.23;3.20;;;12.90;26.80;;;;;;5010415;28;20398;-74
2023/10/17 10:14:36;;;;;;;11.52;4.93;;;12.90;27.60;;;;;;5006207;28;20408;-72
2023/10/17 10:17:05;;;;;;;6.53;4.00;;;13.10;27.50;;;;;;5015760;28;20462;-74
2023/10/17 10:19:47;;;;;;;9.65;4.40;;;13.00;28.00;;;;;;5016472;28;20520;-72
2023/10/17 10:22:13;;;;;;;8.82;4.45;;;13.00;27.40;;;;;;5016130;28;20966;-73
2023/10/17 10:24:40;;;;;;;6.57;3.50;;;13.10;27.10;;;;;;5016376;28;20388;-74
2023/10/17 10:29:56;;;;;;;8.80;4.60;;;13.30;24.40;;;;;;5000255;28;20416;-72
2023/10/17 10:32:25;;;;;;;5.45;3.00;;;13.40;25.00;;;;;;5005286;28;20402;-72
2023/10/17 10:34:51;;;;;;;8.02;3.00;;;13.50;25.80;;;;;;4999781;28;20386;-71
2023/10/17 10:37:17;;;;;;;5.75;2.40;;;13.50;25.90;;;;;;5019584;28;20416;-74
2023/10/17 10:40:11;;;;;;;5.95;3.30;;;13.50;24.80;;;;;;5020802;28;20381;-74
2023/10/17 10:42:51;;;;;;;3.13;1.80;;;13.70;24.80;;;;;;5003063;28;20385;-74
2023/10/17 10:45:26;;;;;;;10.23;5.40;;;13.70;23.40;;;;;;5024058;28;20925;-71
2023/10/17 10:47:57;;;;;;;5.68;2.40;;;13.60;25.10;;;;;;5023451;28;20748;-72
2023/10/17 10:50:25;;;;;;;3.80;1.83;;;13.70;23.00;;;;;;5022807;28;20392;-73
2023/10/17 10:52:50;;;;;;;3.83;2.00;;;13.50;23.20;;;;;;5021699;28;20381;-72
2023/10/17 10:55:17;;;;;;;3.88;1.73;;;13.40;23.10;;;;;;5021397;28;20403;-73
2023/10/17 10:57:43;;;;;;;5.97;2.20;;;13.40;23.40;;;;;;5021983;28;20442;-73
2023/10/17 11:00:09;;;;;;;3.97;2.10;;;13.60;23.30;;;;;;5004264;28;20389;-75
2023/10/17 11:02:36;;;;;;;7.00;1.88;;;13.70;22.70;;;;;;5004200;28;20389;-73
2023/10/17 11:05:04;;;;;;;3.67;1.60;;;13.70;23.00;;;;;;5022916;28;20738;-74
2023/10/17 11:07:33;;;;;;;8.73;2.30;;;13.60;22.30;;;;;;5000124;28;20393;-71
2023/10/17 11:10:06;;;;;;;25.00;2.92;;;13.70;22.80;;;;;;5014844;28;20464;-73
2023/10/17 11:12:35;;;;;;;8.18;1.98;;;13.80;22.50;;;;;;5013395;28;20471;-71
2023/10/17 11:15:14;;;;;;;4.40;1.93;;;14.00;22.30;;;;;;5013644;28;20513;-73
2023/10/17 11:17:41;;;;;;;7.45;3.30;;;14.20;21.60;;;;;;5015030;28;20522;-73
2023/10/17 11:20:18;;;;;;;18.33;4.20;;;14.20;22.10;;;;;;5011602;28;20413;-72
2023/10/17 11:22:47;;;;;;;6.28;2.20;;;14.30;21.20;;;;;;5002064;28;20408;-71
2023/10/17 11:25:27;;;;;;;2.50;1.80;;;14.10;21.30;;;;;;5016583;28;20393;-72
2023/10/17 11:27:56;;;;;;;4.35;1.88;;;14.20;21.70;;;;;;5016091;28;20396;-71
2023/10/17 11:30:32;;;;;;;7.25;2.10;;;14.20;20.90;;;;;;5008767;28;20406;-72
2023/10/17 11:33:05;;;;;;;7.15;1.60;;;14.30;20.90;;;;;;4996788;28;20398;-71
2023/10/17 11:35:32;;;;;;;2.92;1.83;;;14.40;20.80;;;;;;5006154;28;20394;-70
2023/10/17 11:37:59;;;;;;;3.45;1.60;;;14.30;21.40;;;;;;5009975;28;20394;-71
2023/10/17 11:40:39;;;;;;;6.75;2.50;;;14.20;21.50;;;;;;5004649;28;20390;-73
2023/10/17 11:43:28;;;;;;;3.38;2.13;;;14.20;21.90;;;;;;5015352;28;20393;-72
2023/10/17 11:45:54;;;;;;;5.53;1.63;;;14.20;22.00;;;;;;5017498;28;20392;-71
2023/10/17 11:48:27;;;;;;;5.15;2.08;;;14.10;21.50;;;;;;5000523;28;20441;-72
2023/10/17 11:51:06;;;;;;;3.90;2.50;;;14.20;21.80;;;;;;4999475;28;20391;-72
2023/10/17 11:53:33;;;;;;;8.37;2.40;;;14.20;21.60;;;;;;4999737;28;20418;-72
2023/10/17 11:55:59;;;;;;;3.10;1.98;;;14.30;21.80;;;;;;5001647;28;20414;-72
2023/10/17 11:58:25;;;;;;;4.70;2.10;;;14.40;21.40;;;;;;4999347;28;20698;-71
2023/10/17 12:00:51;;;;;;;4.20;2.00;;;14.40;21.60;;;;;;5001117;28;20793;-71
2023/10/17 12:03:20;;;;;;;3.95;2.40;;;14.40;21.60;;;;;;4999198;28;20414;-72
2023/10/17 12:05:47;;;;;;;5.25;2.60;;;14.50;20.80;;;;;;4999750;28;20900;-70
2023/10/17 12:08:22;;;;;;;11.63;2.30;;;14.50;21.20;;;;;;4999849;28;20401;-71
2023/10/17 12:10:53;;;;;;;4.20;2.20;;;14.50;20.50;;;;;;5000384;28;20945;-71
2023/10/17 12:13:19;;;;;;;2.10;1.43;;;14.30;20.20;;;;;;4999189;28;20435;-72
2023/10/17 12:15:46;;;;;;;4.63;1.90;;;14.40;20.40;;;;;;5001963;28;20488;-72
2023/10/17 12:18:14;;;;;;;4.30;2.47;;;14.50;21.10;;;;;;5001024;28;20398;-72
2023/10/17 12:20:40;;;;;;;5.47;1.98;;;14.40;21.80;;;;;;5003213;28;20393;-69
2023/10/17 12:23:10;;;;;;;4.15;2.40;;;14.50;20.80;;;;;;5010586;28;20393;-72
2023/10/17 12:25:36;;;;;;;8.05;2.42;;;14.40;21.30;;;;;;5017323;28;20395;-73
2023/10/17 12:28:03;;;;;;;4.63;1.80;;;14.40;21.80;;;;;;5015409;28;20397;-71
2023/10/17 12:30:35;;;;;;;7.80;3.33;;;14.40;21.00;;;;;;4999530;28;20448;-71
2023/10/17 12:33:01;;;;;;;6.82;2.40;;;14.50;21.20;;;;;;5005861;28;20416;-72
2023/10/17 12:35:30;;;;;;;4.20;2.40;;;14.60;20.20;;;;;;5004721;28;20429;-70
2023/10/17 12:38:06;;;;;;;6.30;2.20;;;14.60;20.60;;;;;;5001130;28;20407;-72
2023/10/17 12:40:32;;;;;;;7.57;2.30;;;14.70;21.30;;;;;;4996103;28;20410;-74
2023/10/17 12:42:58;;;;;;;5.77;2.47;;;14.70;20.50;;;;;;4995686;28;20399;-73
2023/10/17 12:45:24;;;;;;;3.80;2.37;;;14.70;20.50;;;;;;4996769;28;20387;-75
2023/10/17 12:47:50;;;;;;;6.45;2.15;;;14.80;21.10;;;;;;4983704;28;20479;-75
2023/10/17 12:50:19;;;;;;;5.95;2.78;;;14.90;21.10;;;;;;5017152;28;20820;-74
2023/10/17 12:52:45;;;;;;;4.40;2.00;;;14.90;21.30;;;;;;5015741;28;20412;-70
2023/10/17 12:55:13;;;;;;;2.90;1.83;;;14.80;21.90;;;;;;5020488;28;20464;-72
2023/10/17 12:57:39;;;;;;;7.85;2.70;;;15.00;19.90;;;;;;5010462;28;20418;-71
2023/10/17 13:00:09;;;;;;;5.57;2.65;;;15.00;20.90;;;;;;5003942;28;20402;-71
2023/10/17 13:02:38;;;;;;;7.13;3.90;;;15.00;21.00;;;;;;4983062;28;20426;-72
2023/10/17 13:05:09;;;;;;;6.47;2.90;;;14.90;21.00;;;;;;4979847;28;20429;-71
2023/10/17 13:07:36;;;;;;;9.68;4.30;;;14.80;21.10;;;;;;5011633;28;20404;-73
2023/10/17 13:10:02;;;;;;;7.07;2.72;;;14.80;22.30;;;;;;5016703;28;20427;-72
2023/10/17 13:12:27;;;;;;;12.57;3.40;;;15.00;21.40;;;;;;4996543;28;20405;-70
2023/10/17 13:14:54;;;;;;;7.15;3.15;;;15.10;20.60;;;;;;5001422;28;20879;-72
2023/10/17 13:17:21;;;;;;;6.20;2.80;;;15.10;20.90;;;;;;4998184;28;20914;-71
2023/10/17 13:19:49;;;;;;;6.80;2.70;;;15.20;21.00;;;;;;4997955;28;20398;-70
2023/10/17 13:22:17;;;;;;;7.60;3.03;;;15.30;21.60;;;;;;5009302;28;20866;-71
2023/10/17 13:24:48;;;;;;;6.60;2.90;;;15.20;21.00;;;;;;5016805;28;20508;-73
2023/10/17 13:27:15;;;;;;;5.75;1.67;;;15.30;20.90;;;;;;5016723;28;20385;-73
2023/10/17 13:29:41;;;;;;;5.75;2.70;;;15.20;19.20;;;;;;5016287;28;20404;-72
2023/10/17 13:32:07;;;;;;;4.78;2.33;;;15.20;21.30;;;;;;5007097;28;20404;-73
2023/10/17 13:34:36;;;;;;;5.28;2.30;;;15.20;20.70;;;;;;5004347;28;20913;-72
2023/10/17 13:37:07;;;;;;;2.60;1.70;;;15.30;20.50;;;;;;5015857;28;20404;-74
2023/10/17 13:39:33;;;;;;;5.20;2.13;;;15.40;20.30;;;;;;5009661;28;20420;-71
2023/10/17 13:41:58;;;;;;;4.40;2.05;;;15.80;19.70;;;;;;5018058;28;20387;-72
2023/10/17 13:44:24;;;;;;;4.70;2.70;;;16.20;19.10;;;;;;5016749;28;20901;-75
2023/10/17 13:46:51;;;;;;;4.03;2.03;;;16.50;17.60;;;;;;5015466;28;20405;-71
2023/10/17 13:49:17;;;;;;;4.45;2.70;;;16.90;16.40;;;;;;5017309;28;20389;-78
2023/10/17 13:51:46;;;;;;;5.82;2.10;;;17.40;16.10;;;;;;5014870;28;20432;-74
2023/10/17 13:54:13;;;;;;;6.32;2.55;;;17.60;14.80;;;;;;5006656;28;20720;-72
2023/10/17 13:56:40;;;;;;;3.70;1.70;;;17.70;15.50;;;;;;5020150;28;20409;-73
2023/10/17 13:59:09;;;;;;;3.72;1.90;;;17.70;14.60;;;;;;5020023;28;20429;-71
2023/10/17 14:01:47;;;;;;;2.83;1.40;;;17.90;14.90;;;;;;5019141;28;20388;-73
2023/10/17 14:04:13;;;;;;;2.50;1.52;;;18.20;14.20;;;;;;5019548;28;20481;-72
2023/10/17 14:06:39;;;;;;;3.85;1.80;;;18.40;13.40;;;;;;5020216;28;20408;-73
2023/10/17 14:09:17;;;;;;;3.60;2.10;;;18.40;14.10;;;;;;5001996;28;20427;-73
2023/10/17 14:11:46;;;;;;;5.00;2.10;;;18.30;14.50;;;;;;5022955;28;20894;-72
2023/10/17 14:14:13;;;;;;;4.90;2.10;;;18.10;14.50;;;;;;5023767;28;20472;-71
2023/10/17 14:16:42;;;;;;;3.35;2.05;;;18.20;14.70;;;;;;5022503;28;20408;-72
2023/10/17 14:22:44;;;;;;;3.55;1.65;;;18.00;13.60;;;;;;5023147;28;20430;-71
2023/10/17 14:24:50;;;;;;;3.72;1.55;;;17.90;14.20;;;;;;5021497;28;20397;-74
2023/10/17 14:27:22;;;;;;;3.17;1.55;;;17.90;14.70;;;;;;5026146;28;20448;-72
2023/10/17 14:29:49;;;;;;;3.75;1.70;;;18.20;13.90;;;;;;5026765;28;20385;-72
2023/10/17 14:32:23;;;;;;;4.60;2.20;;;18.10;14.20;;;;;;5023360;28;20864;-71
2023/10/17 14:34:49;;;;;;;5.55;2.00;;;17.80;15.00;;;;;;5022988;28;20392;-72
2023/10/17 14:37:17;;;;;;;5.88;2.03;;;17.50;15.50;;;;;;5021079;28;20497;-73
2023/10/17 14:39:44;;;;;;;2.63;1.67;;;17.30;15.30;;;;;;5021893;28;20381;-72
2023/10/17 14:42:10;;;;;;;3.03;1.95;;;17.20;15.50;;;;;;5022133;28;20439;-73
2023/10/17 14:44:36;;;;;;;3.83;2.40;;;17.20;15.30;;;;;;5003840;28;20427;-73
2023/10/17 14:47:03;;;;;;;4.00;1.92;;;17.30;15.20;;;;;;5021610;28;20420;-73
2023/10/17 14:49:28;;;;;;;4.20;2.13;;;17.80;14.70;;;;;;5021680;28;20412;-72
2023/10/17 14:51:54;;;;;;;5.70;1.80;;;18.20;14.50;;;;;;5023217;28;20396;-72
2023/10/17 14:54:23;;;;;;;2.90;1.90;;;18.70;13.40;;;;;;5022567;28;20854;-70
2023/10/17 14:56:50;;;;;;;8.43;1.90;;;19.00;13.40;;;;;;5021628;28;20440;-73
2023/10/17 14:59:16;;;;;;;4.47;1.70;;;19.00;12.20;;;;;;5023023;28;20395;-71